Terminal Aerodrome Forecast
Issued by NWS

Home | Current Version | Previous Version | Text Only | Print | Product List | Glossary On
Versions: 1 2 3 4 5 6 7 8 9 10 11 12 13
000
FTUS46 KPDT 311736
TAFALW
TAF
KALW 311736Z 3118/0118 VRB05KT P6SM SCT150
     FM312000 33007KT P6SM SCT150
     FM010400 10007KT P6SM SCT150
     FM011500 22006KT P6SM FEW100 BKN150=

USA.gov is the U.S. government's official web portal to all federal, state and local government web resources and services.